sensor_id;sensor_type;location;lat;lon;timestamp;P1;durP1;ratioP1;P2;durP2;ratioP2
32365;SDS011;18837;46.832;16.838;2024-01-30T00:02:12;11.30;;;9.00;;
32365;SDS011;18837;46.832;16.838;2024-01-30T00:07:41;11.23;;;8.63;;
32365;SDS011;18837;46.832;16.838;2024-01-30T00:10:07;12.00;;;8.77;;
32365;SDS011;18837;46.832;16.838;2024-01-30T00:12:33;12.07;;;8.90;;
32365;SDS011;18837;46.832;16.838;2024-01-30T00:14:58;14.77;;;9.33;;
32365;SDS011;18837;46.832;16.838;2024-01-30T00:17:24;12.37;;;8.10;;
32365;SDS011;18837;46.832;16.838;2024-01-30T00:19:51;12.03;;;9.00;;
32365;SDS011;18837;46.832;16.838;2024-01-30T00:22:29;11.07;;;8.43;;
32365;SDS011;18837;46.832;16.838;2024-01-30T00:24:55;10.70;;;8.70;;
32365;SDS011;18837;46.832;16.838;2024-01-30T00:27:21;14.30;;;9.13;;
32365;SDS011;18837;46.832;16.838;2024-01-30T00:29:46;11.17;;;8.57;;
32365;SDS011;18837;46.832;16.838;2024-01-30T00:32:12;12.07;;;8.67;;
32365;SDS011;18837;46.832;16.838;2024-01-30T00:34:38;10.90;;;9.37;;
32365;SDS011;18837;46.832;16.838;2024-01-30T00:37:04;12.23;;;8.67;;
32365;SDS011;18837;46.832;16.838;2024-01-30T00:45:01;10.67;;;8.07;;
32365;SDS011;18837;46.832;16.838;2024-01-30T00:47:27;12.80;;;8.90;;
32365;SDS011;18837;46.832;16.838;2024-01-30T00:49:54;12.07;;;8.77;;
32365;SDS011;18837;46.832;16.838;2024-01-30T00:52:19;13.07;;;8.60;;
32365;SDS011;18837;46.832;16.838;2024-01-30T00:54:45;12.03;;;9.17;;
32365;SDS011;18837;46.832;16.838;2024-01-30T00:57:14;13.47;;;8.77;;
32365;SDS011;18837;46.832;16.838;2024-01-30T00:59:40;12.57;;;8.63;;
32365;SDS011;18837;46.832;16.838;2024-01-30T01:02:06;12.27;;;8.90;;
32365;SDS011;18837;46.832;16.838;2024-01-30T01:04:31;10.97;;;8.43;;
32365;SDS011;18837;46.832;16.838;2024-01-30T01:06:57;14.27;;;8.97;;
32365;SDS011;18837;46.832;16.838;2024-01-30T01:09:23;13.50;;;9.57;;
32365;SDS011;18837;46.832;16.838;2024-01-30T01:11:57;11.90;;;8.10;;
32365;SDS011;18837;46.832;16.838;2024-01-30T01:17:25;12.17;;;8.80;;
32365;SDS011;18837;46.832;16.838;2024-01-30T01:19:51;13.10;;;8.73;;
32365;SDS011;18837;46.832;16.838;2024-01-30T01:22:17;11.33;;;9.10;;
32365;SDS011;18837;46.832;16.838;2024-01-30T01:24:43;11.17;;;8.30;;
32365;SDS011;18837;46.832;16.838;2024-01-30T01:27:09;11.97;;;8.80;;
32365;SDS011;18837;46.832;16.838;2024-01-30T01:29:34;12.43;;;8.27;;
32365;SDS011;18837;46.832;16.838;2024-01-30T01:32:04;11.03;;;8.40;;
32365;SDS011;18837;46.832;16.838;2024-01-30T01:34:29;12.33;;;8.63;;
32365;SDS011;18837;46.832;16.838;2024-01-30T01:36:55;10.27;;;8.07;;
32365;SDS011;18837;46.832;16.838;2024-01-30T01:39:22;13.17;;;8.73;;
32365;SDS011;18837;46.832;16.838;2024-01-30T01:41:50;12.67;;;8.10;;
32365;SDS011;18837;46.832;16.838;2024-01-30T01:44:17;12.60;;;8.60;;
32365;SDS011;18837;46.832;16.838;2024-01-30T01:46:52;13.93;;;8.23;;
32365;SDS011;18837;46.832;16.838;2024-01-30T01:52:25;12.97;;;8.03;;
32365;SDS011;18837;46.832;16.838;2024-01-30T01:54:51;11.60;;;8.37;;
32365;SDS011;18837;46.832;16.838;2024-01-30T01:57:17;15.23;;;8.30;;
32365;SDS011;18837;46.832;16.838;2024-01-30T01:59:42;10.20;;;7.63;;
32365;SDS011;18837;46.832;16.838;2024-01-30T02:02:08;13.37;;;8.60;;
32365;SDS011;18837;46.832;16.838;2024-01-30T02:04:37;11.20;;;7.80;;
32365;SDS011;18837;46.832;16.838;2024-01-30T02:07:15;13.13;;;8.00;;
32365;SDS011;18837;46.832;16.838;2024-01-30T02:09:41;10.70;;;8.23;;
32365;SDS011;18837;46.832;16.838;2024-01-30T02:12:07;12.80;;;9.40;;
32365;SDS011;18837;46.832;16.838;2024-01-30T02:14:32;11.73;;;8.57;;
32365;SDS011;18837;46.832;16.838;2024-01-30T02:16:58;11.73;;;8.77;;
32365;SDS011;18837;46.832;16.838;2024-01-30T02:19:24;11.87;;;8.43;;
32365;SDS011;18837;46.832;16.838;2024-01-30T02:27:35;11.03;;;8.23;;
32365;SDS011;18837;46.832;16.838;2024-01-30T02:30:00;14.13;;;8.90;;
32365;SDS011;18837;46.832;16.838;2024-01-30T02:32:26;11.40;;;8.10;;
32365;SDS011;18837;46.832;16.838;2024-01-30T02:34:52;16.80;;;9.03;;
32365;SDS011;18837;46.832;16.838;2024-01-30T02:37:18;12.73;;;8.37;;
32365;SDS011;18837;46.832;16.838;2024-01-30T02:39:43;12.77;;;8.77;;
32365;SDS011;18837;46.832;16.838;2024-01-30T02:42:14;11.53;;;8.87;;
32365;SDS011;18837;46.832;16.838;2024-01-30T02:44:40;12.43;;;8.47;;
32365;SDS011;18837;46.832;16.838;2024-01-30T02:47:06;13.10;;;8.50;;
32365;SDS011;18837;46.832;16.838;2024-01-30T02:49:32;12.90;;;8.60;;
32365;SDS011;18837;46.832;16.838;2024-01-30T02:51:58;11.00;;;8.23;;
32365;SDS011;18837;46.832;16.838;2024-01-30T02:54:24;11.53;;;9.07;;
32365;SDS011;18837;46.832;16.838;2024-01-30T03:00:01;11.40;;;8.70;;
32365;SDS011;18837;46.832;16.838;2024-01-30T03:02:28;12.90;;;8.50;;
32365;SDS011;18837;46.832;16.838;2024-01-30T03:04:54;12.00;;;8.53;;
32365;SDS011;18837;46.832;16.838;2024-01-30T03:07:20;11.17;;;8.47;;
32365;SDS011;18837;46.832;16.838;2024-01-30T03:09:46;15.80;;;9.60;;
32365;SDS011;18837;46.832;16.838;2024-01-30T03:12:13;11.83;;;8.70;;
32365;SDS011;18837;46.832;16.838;2024-01-30T03:14:51;12.97;;;8.83;;
32365;SDS011;18837;46.832;16.838;2024-01-30T03:17:16;14.40;;;9.60;;
32365;SDS011;18837;46.832;16.838;2024-01-30T03:19:42;11.50;;;8.53;;
32365;SDS011;18837;46.832;16.838;2024-01-30T03:22:08;12.20;;;8.27;;
32365;SDS011;18837;46.832;16.838;2024-01-30T03:24:34;14.07;;;9.30;;
32365;SDS011;18837;46.832;16.838;2024-01-30T03:27:00;13.00;;;8.93;;
32365;SDS011;18837;46.832;16.838;2024-01-30T03:29:26;13.20;;;8.87;;
32365;SDS011;18837;46.832;16.838;2024-01-30T03:34:54;13.30;;;8.83;;
32365;SDS011;18837;46.832;16.838;2024-01-30T03:37:19;12.13;;;9.03;;
32365;SDS011;18837;46.832;16.838;2024-01-30T03:39:45;12.73;;;9.03;;
32365;SDS011;18837;46.832;16.838;2024-01-30T03:42:11;15.00;;;8.90;;
32365;SDS011;18837;46.832;16.838;2024-01-30T03:44:37;13.90;;;9.73;;
32365;SDS011;18837;46.832;16.838;2024-01-30T03:47:03;13.37;;;9.20;;
32365;SDS011;18837;46.832;16.838;2024-01-30T03:49:35;13.53;;;9.40;;
32365;SDS011;18837;46.832;16.838;2024-01-30T03:52:04;13.17;;;8.90;;
32365;SDS011;18837;46.832;16.838;2024-01-30T03:54:30;12.13;;;8.80;;
32365;SDS011;18837;46.832;16.838;2024-01-30T03:56:55;12.00;;;9.07;;
32365;SDS011;18837;46.832;16.838;2024-01-30T03:59:21;13.43;;;9.47;;
32365;SDS011;18837;46.832;16.838;2024-01-30T04:01:49;13.13;;;8.30;;
32365;SDS011;18837;46.832;16.838;2024-01-30T04:04:16;14.37;;;9.73;;
32365;SDS011;18837;46.832;16.838;2024-01-30T04:06:57;14.30;;;9.47;;
32365;SDS011;18837;46.832;16.838;2024-01-30T04:09:35;13.83;;;10.00;;
32365;SDS011;18837;46.832;16.838;2024-01-30T04:12:01;13.60;;;9.47;;
32365;SDS011;18837;46.832;16.838;2024-01-30T04:14:28;13.70;;;9.57;;
32365;SDS011;18837;46.832;16.838;2024-01-30T04:16:53;14.43;;;9.67;;
32365;SDS011;18837;46.832;16.838;2024-01-30T04:19:19;15.57;;;9.80;;
32365;SDS011;18837;46.832;16.838;2024-01-30T04:21:45;15.00;;;9.77;;
32365;SDS011;18837;46.832;16.838;2024-01-30T04:24:17;12.33;;;8.43;;
32365;SDS011;18837;46.832;16.838;2024-01-30T04:26:46;14.87;;;9.67;;
32365;SDS011;18837;46.832;16.838;2024-01-30T04:29:12;12.90;;;8.93;;
32365;SDS011;18837;46.832;16.838;2024-01-30T04:31:38;13.83;;;9.33;;
32365;SDS011;18837;46.832;16.838;2024-01-30T04:34:04;11.87;;;9.33;;
32365;SDS011;18837;46.832;16.838;2024-01-30T04:36:29;13.23;;;9.43;;
32365;SDS011;18837;46.832;16.838;2024-01-30T04:39:08;12.07;;;8.67;;
32365;SDS011;18837;46.832;16.838;2024-01-30T04:44:47;13.07;;;8.80;;
32365;SDS011;18837;46.832;16.838;2024-01-30T04:47:13;11.97;;;8.87;;
32365;SDS011;18837;46.832;16.838;2024-01-30T04:49:39;12.57;;;8.70;;
32365;SDS011;18837;46.832;16.838;2024-01-30T04:52:05;14.13;;;9.43;;
32365;SDS011;18837;46.832;16.838;2024-01-30T04:54:31;14.20;;;9.43;;
32365;SDS011;18837;46.832;16.838;2024-01-30T04:56:57;13.40;;;8.87;;
32365;SDS011;18837;46.832;16.838;2024-01-30T04:59:29;12.10;;;9.10;;
32365;SDS011;18837;46.832;16.838;2024-01-30T05:01:55;12.50;;;8.53;;
32365;SDS011;18837;46.832;16.838;2024-01-30T05:04:21;13.93;;;9.27;;
32365;SDS011;18837;46.832;16.838;2024-01-30T05:06:47;13.27;;;9.40;;
32365;SDS011;18837;46.832;16.838;2024-01-30T05:09:12;14.60;;;9.57;;
32365;SDS011;18837;46.832;16.838;2024-01-30T05:11:39;13.27;;;9.17;;
32365;SDS011;18837;46.832;16.838;2024-01-30T05:19:40;13.33;;;8.33;;
32365;SDS011;18837;46.832;16.838;2024-01-30T05:22:06;12.27;;;8.63;;
32365;SDS011;18837;46.832;16.838;2024-01-30T05:24:32;13.63;;;8.97;;
32365;SDS011;18837;46.832;16.838;2024-01-30T05:26:58;16.73;;;9.03;;
32365;SDS011;18837;46.832;16.838;2024-01-30T05:29:23;12.10;;;8.50;;
32365;SDS011;18837;46.832;16.838;2024-01-30T05:31:49;12.97;;;8.80;;
32365;SDS011;18837;46.832;16.838;2024-01-30T05:34:24;10.73;;;8.60;;
32365;SDS011;18837;46.832;16.838;2024-01-30T05:36:50;11.43;;;8.20;;
32365;SDS011;18837;46.832;16.838;2024-01-30T05:39:16;13.20;;;8.80;;
32365;SDS011;18837;46.832;16.838;2024-01-30T05:41:42;11.80;;;9.00;;
32365;SDS011;18837;46.832;16.838;2024-01-30T05:44:07;12.43;;;8.90;;
32365;SDS011;18837;46.832;16.838;2024-01-30T05:46:35;13.27;;;8.73;;
32365;SDS011;18837;46.832;16.838;2024-01-30T05:54:52;12.97;;;8.67;;
32365;SDS011;18837;46.832;16.838;2024-01-30T05:57:18;11.33;;;8.67;;
32365;SDS011;18837;46.832;16.838;2024-01-30T05:59:44;12.83;;;8.47;;
32365;SDS011;18837;46.832;16.838;2024-01-30T06:02:10;11.53;;;8.60;;
32365;SDS011;18837;46.832;16.838;2024-01-30T06:04:36;13.43;;;9.23;;
32365;SDS011;18837;46.832;16.838;2024-01-30T06:07:02;13.83;;;8.77;;
32365;SDS011;18837;46.832;16.838;2024-01-30T06:09:35;11.47;;;8.60;;
32365;SDS011;18837;46.832;16.838;2024-01-30T06:12:01;12.30;;;8.87;;
32365;SDS011;18837;46.832;16.838;2024-01-30T06:14:27;12.60;;;8.37;;
32365;SDS011;18837;46.832;16.838;2024-01-30T06:16:53;11.73;;;9.37;;
32365;SDS011;18837;46.832;16.838;2024-01-30T06:19:18;14.73;;;9.17;;
32365;SDS011;18837;46.832;16.838;2024-01-30T06:21:44;14.97;;;9.73;;
32365;SDS011;18837;46.832;16.838;2024-01-30T06:30:11;14.00;;;9.20;;
32365;SDS011;18837;46.832;16.838;2024-01-30T06:32:37;13.43;;;8.77;;
32365;SDS011;18837;46.832;16.838;2024-01-30T06:35:03;14.07;;;8.77;;
32365;SDS011;18837;46.832;16.838;2024-01-30T06:37:31;13.90;;;9.07;;
32365;SDS011;18837;46.832;16.838;2024-01-30T06:39:57;13.67;;;9.03;;
32365;SDS011;18837;46.832;16.838;2024-01-30T06:42:32;12.03;;;8.13;;
32365;SDS011;18837;46.832;16.838;2024-01-30T06:44:58;12.53;;;9.17;;
32365;SDS011;18837;46.832;16.838;2024-01-30T06:47:23;14.87;;;9.00;;
32365;SDS011;18837;46.832;16.838;2024-01-30T06:49:49;13.50;;;8.87;;
32365;SDS011;18837;46.832;16.838;2024-01-30T06:52:15;12.00;;;8.47;;
32365;SDS011;18837;46.832;16.838;2024-01-30T06:54:41;12.80;;;9.13;;
32365;SDS011;18837;46.832;16.838;2024-01-30T07:03:23;14.13;;;9.73;;
32365;SDS011;18837;46.832;16.838;2024-01-30T07:05:49;11.97;;;8.57;;
32365;SDS011;18837;46.832;16.838;2024-01-30T07:08:16;13.17;;;9.03;;
32365;SDS011;18837;46.832;16.838;2024-01-30T07:10:45;16.17;;;9.97;;
32365;SDS011;18837;46.832;16.838;2024-01-30T07:13:12;16.30;;;10.30;;
32365;SDS011;18837;46.832;16.838;2024-01-30T07:15:38;11.87;;;8.37;;
32365;SDS011;18837;46.832;16.838;2024-01-30T07:18:07;14.80;;;9.17;;
32365;SDS011;18837;46.832;16.838;2024-01-30T07:20:38;13.47;;;9.63;;
32365;SDS011;18837;46.832;16.838;2024-01-30T07:23:11;13.40;;;9.27;;
32365;SDS011;18837;46.832;16.838;2024-01-30T07:25:39;13.60;;;9.30;;
32365;SDS011;18837;46.832;16.838;2024-01-30T07:28:07;14.27;;;9.77;;
32365;SDS011;18837;46.832;16.838;2024-01-30T07:30:38;15.67;;;10.83;;
32365;SDS011;18837;46.832;16.838;2024-01-30T07:39:13;13.73;;;8.97;;
32365;SDS011;18837;46.832;16.838;2024-01-30T07:41:38;14.63;;;8.87;;
32365;SDS011;18837;46.832;16.838;2024-01-30T07:44:04;13.57;;;9.50;;
32365;SDS011;18837;46.832;16.838;2024-01-30T07:46:30;13.73;;;9.57;;
32365;SDS011;18837;46.832;16.838;2024-01-30T07:48:56;16.93;;;10.17;;
32365;SDS011;18837;46.832;16.838;2024-01-30T07:51:23;13.53;;;9.63;;
32365;SDS011;18837;46.832;16.838;2024-01-30T07:53:52;13.23;;;9.60;;
32365;SDS011;18837;46.832;16.838;2024-01-30T07:56:18;14.80;;;10.17;;
32365;SDS011;18837;46.832;16.838;2024-01-30T07:58:44;15.57;;;9.83;;
32365;SDS011;18837;46.832;16.838;2024-01-30T08:01:10;12.40;;;9.30;;
32365;SDS011;18837;46.832;16.838;2024-01-30T08:03:36;16.37;;;10.00;;
32365;SDS011;18837;46.832;16.838;2024-01-30T08:06:04;17.50;;;9.90;;
32365;SDS011;18837;46.832;16.838;2024-01-30T08:08:31;13.73;;;9.70;;
32365;SDS011;18837;46.832;16.838;2024-01-30T08:10:57;13.73;;;9.73;;
32365;SDS011;18837;46.832;16.838;2024-01-30T08:13:23;14.97;;;9.90;;
32365;SDS011;18837;46.832;16.838;2024-01-30T08:15:49;16.17;;;9.77;;
32365;SDS011;18837;46.832;16.838;2024-01-30T08:18:15;15.03;;;9.87;;
32365;SDS011;18837;46.832;16.838;2024-01-30T08:20:40;13.63;;;9.87;;
32365;SDS011;18837;46.832;16.838;2024-01-30T08:23:07;13.63;;;9.97;;
32365;SDS011;18837;46.832;16.838;2024-01-30T08:25:33;14.27;;;9.53;;
32365;SDS011;18837;46.832;16.838;2024-01-30T08:27:59;14.87;;;10.00;;
32365;SDS011;18837;46.832;16.838;2024-01-30T08:30:25;13.30;;;9.47;;
32365;SDS011;18837;46.832;16.838;2024-01-30T08:32:51;16.70;;;10.37;;
32365;SDS011;18837;46.832;16.838;2024-01-30T08:35:17;12.77;;;9.73;;
32365;SDS011;18837;46.832;16.838;2024-01-30T08:37:43;15.47;;;9.87;;
32365;SDS011;18837;46.832;16.838;2024-01-30T08:40:09;16.17;;;10.13;;
32365;SDS011;18837;46.832;16.838;2024-01-30T08:42:35;16.73;;;9.37;;
32365;SDS011;18837;46.832;16.838;2024-01-30T08:45:01;13.47;;;9.33;;
32365;SDS011;18837;46.832;16.838;2024-01-30T08:47:27;17.13;;;10.97;;
32365;SDS011;18837;46.832;16.838;2024-01-30T08:49:53;19.07;;;12.50;;
32365;SDS011;18837;46.832;16.838;2024-01-30T08:52:19;19.07;;;11.30;;
32365;SDS011;18837;46.832;16.838;2024-01-30T08:54:44;19.83;;;11.70;;
32365;SDS011;18837;46.832;16.838;2024-01-30T08:57:11;18.43;;;11.43;;
32365;SDS011;18837;46.832;16.838;2024-01-30T08:59:36;17.47;;;11.20;;
32365;SDS011;18837;46.832;16.838;2024-01-30T09:02:02;17.43;;;12.10;;
32365;SDS011;18837;46.832;16.838;2024-01-30T09:04:29;20.80;;;12.20;;
32365;SDS011;18837;46.832;16.838;2024-01-30T09:06:55;15.67;;;11.30;;
32365;SDS011;18837;46.832;16.838;2024-01-30T09:09:39;17.57;;;12.00;;
32365;SDS011;18837;46.832;16.838;2024-01-30T09:12:08;16.47;;;11.13;;
32365;SDS011;18837;46.832;16.838;2024-01-30T09:14:37;17.37;;;12.27;;
32365;SDS011;18837;46.832;16.838;2024-01-30T09:17:04;15.87;;;10.80;;
32365;SDS011;18837;46.832;16.838;2024-01-30T09:19:30;16.70;;;11.27;;
32365;SDS011;18837;46.832;16.838;2024-01-30T09:21:56;16.43;;;11.47;;
32365;SDS011;18837;46.832;16.838;2024-01-30T09:30:46;16.97;;;10.70;;
32365;SDS011;18837;46.832;16.838;2024-01-30T09:33:12;17.37;;;10.97;;
32365;SDS011;18837;46.832;16.838;2024-01-30T09:35:38;15.60;;;11.37;;
32365;SDS011;18837;46.832;16.838;2024-01-30T09:38:04;15.80;;;10.37;;
32365;SDS011;18837;46.832;16.838;2024-01-30T09:40:29;16.27;;;11.17;;
32365;SDS011;18837;46.832;16.838;2024-01-30T09:42:55;18.00;;;11.30;;
32365;SDS011;18837;46.832;16.838;2024-01-30T09:45:25;15.53;;;10.60;;
32365;SDS011;18837;46.832;16.838;2024-01-30T09:47:52;17.63;;;11.13;;
32365;SDS011;18837;46.832;16.838;2024-01-30T09:50:18;14.47;;;10.47;;
32365;SDS011;18837;46.832;16.838;2024-01-30T09:52:45;14.60;;;10.27;;
32365;SDS011;18837;46.832;16.838;2024-01-30T09:55:12;14.40;;;10.30;;
32365;SDS011;18837;46.832;16.838;2024-01-30T09:57:39;14.93;;;9.93;;
32365;SDS011;18837;46.832;16.838;2024-01-30T10:00:18;16.50;;;10.77;;
32365;SDS011;18837;46.832;16.838;2024-01-30T10:02:44;16.77;;;10.97;;
32365;SDS011;18837;46.832;16.838;2024-01-30T10:05:10;14.33;;;10.10;;
32365;SDS011;18837;46.832;16.838;2024-01-30T10:07:49;17.10;;;10.57;;
32365;SDS011;18837;46.832;16.838;2024-01-30T10:10:18;17.77;;;10.27;;
32365;SDS011;18837;46.832;16.838;2024-01-30T10:12:43;15.37;;;9.47;;
32365;SDS011;18837;46.832;16.838;2024-01-30T10:21:31;15.47;;;10.87;;
32365;SDS011;18837;46.832;16.838;2024-01-30T10:23:56;14.37;;;10.00;;
32365;SDS011;18837;46.832;16.838;2024-01-30T10:26:22;14.50;;;9.53;;
32365;SDS011;18837;46.832;16.838;2024-01-30T10:28:48;17.13;;;9.47;;
32365;SDS011;18837;46.832;16.838;2024-01-30T10:31:17;15.87;;;9.93;;
32365;SDS011;18837;46.832;16.838;2024-01-30T10:33:44;13.10;;;9.60;;
32365;SDS011;18837;46.832;16.838;2024-01-30T10:36:11;13.20;;;9.27;;
32365;SDS011;18837;46.832;16.838;2024-01-30T10:38:40;13.10;;;9.67;;
32365;SDS011;18837;46.832;16.838;2024-01-30T10:41:08;11.83;;;8.83;;
32365;SDS011;18837;46.832;16.838;2024-01-30T10:43:40;12.03;;;8.37;;
32365;SDS011;18837;46.832;16.838;2024-01-30T10:46:11;11.77;;;8.23;;
32365;SDS011;18837;46.832;16.838;2024-01-30T10:49:15;11.63;;;8.13;;
32365;SDS011;18837;46.832;16.838;2024-01-30T10:51:41;13.48;;;11.32;;
32365;SDS011;18837;46.832;16.838;2024-01-30T10:54:08;15.00;;;10.10;;
32365;SDS011;18837;46.832;16.838;2024-01-30T10:56:35;14.47;;;9.93;;
32365;SDS011;18837;46.832;16.838;2024-01-30T10:59:02;13.97;;;9.77;;
32365;SDS011;18837;46.832;16.838;2024-01-30T11:01:28;16.17;;;10.10;;
32365;SDS011;18837;46.832;16.838;2024-01-30T11:10:20;12.73;;;8.47;;
32365;SDS011;18837;46.832;16.838;2024-01-30T11:12:46;11.00;;;7.93;;
32365;SDS011;18837;46.832;16.838;2024-01-30T11:15:13;9.77;;;6.40;;
32365;SDS011;18837;46.832;16.838;2024-01-30T11:17:41;10.60;;;6.93;;
32365;SDS011;18837;46.832;16.838;2024-01-30T11:20:11;9.17;;;6.37;;
32365;SDS011;18837;46.832;16.838;2024-01-30T11:22:40;9.57;;;6.83;;
32365;SDS011;18837;46.832;16.838;2024-01-30T11:25:32;9.93;;;6.10;;
32365;SDS011;18837;46.832;16.838;2024-01-30T11:27:58;8.23;;;5.80;;
32365;SDS011;18837;46.832;16.838;2024-01-30T11:30:25;9.87;;;7.10;;
32365;SDS011;18837;46.832;16.838;2024-01-30T11:33:07;9.83;;;7.20;;
32365;SDS011;18837;46.832;16.838;2024-01-30T11:35:37;9.50;;;6.97;;
32365;SDS011;18837;46.832;16.838;2024-01-30T11:40:54;11.10;;;7.93;;
32365;SDS011;18837;46.832;16.838;2024-01-30T11:43:23;11.20;;;7.70;;
32365;SDS011;18837;46.832;16.838;2024-01-30T11:45:50;10.80;;;7.00;;
32365;SDS011;18837;46.832;16.838;2024-01-30T11:48:17;10.83;;;7.07;;
32365;SDS011;18837;46.832;16.838;2024-01-30T11:50:42;12.43;;;7.73;;
32365;SDS011;18837;46.832;16.838;2024-01-30T11:59:55;12.30;;;7.57;;
32365;SDS011;18837;46.832;16.838;2024-01-30T12:02:21;10.57;;;7.60;;
32365;SDS011;18837;46.832;16.838;2024-01-30T12:04:47;11.67;;;8.00;;
32365;SDS011;18837;46.832;16.838;2024-01-30T12:07:13;12.67;;;7.73;;
32365;SDS011;18837;46.832;16.838;2024-01-30T12:09:41;10.93;;;7.37;;
32365;SDS011;18837;46.832;16.838;2024-01-30T12:12:07;10.23;;;8.00;;
32365;SDS011;18837;46.832;16.838;2024-01-30T12:14:49;13.63;;;8.00;;
32365;SDS011;18837;46.832;16.838;2024-01-30T12:19:50;10.87;;;7.90;;
32365;SDS011;18837;46.832;16.838;2024-01-30T12:22:16;13.00;;;8.60;;
32365;SDS011;18837;46.832;16.838;2024-01-30T12:24:41;11.77;;;7.80;;
32365;SDS011;18837;46.832;16.838;2024-01-30T12:27:07;11.73;;;7.97;;
32365;SDS011;18837;46.832;16.838;2024-01-30T12:35:15;11.53;;;8.50;;
32365;SDS011;18837;46.832;16.838;2024-01-30T12:37:45;12.57;;;8.43;;
32365;SDS011;18837;46.832;16.838;2024-01-30T12:40:12;13.13;;;8.57;;
32365;SDS011;18837;46.832;16.838;2024-01-30T12:42:40;10.90;;;7.93;;
32365;SDS011;18837;46.832;16.838;2024-01-30T12:45:08;10.73;;;8.63;;
32365;SDS011;18837;46.832;16.838;2024-01-30T12:47:49;10.43;;;7.67;;
32365;SDS011;18837;46.832;16.838;2024-01-30T12:50:15;15.87;;;7.87;;
32365;SDS011;18837;46.832;16.838;2024-01-30T12:52:42;12.53;;;8.00;;
32365;SDS011;18837;46.832;16.838;2024-01-30T12:55:08;12.40;;;8.00;;
32365;SDS011;18837;46.832;16.838;2024-01-30T12:57:34;14.77;;;8.10;;
32365;SDS011;18837;46.832;16.838;2024-01-30T13:00:00;11.87;;;7.60;;
32365;SDS011;18837;46.832;16.838;2024-01-30T13:09:06;13.67;;;7.30;;
32365;SDS011;18837;46.832;16.838;2024-01-30T13:11:32;11.03;;;7.33;;
32365;SDS011;18837;46.832;16.838;2024-01-30T13:13:59;12.17;;;7.73;;
32365;SDS011;18837;46.832;16.838;2024-01-30T13:16:25;10.43;;;7.50;;
32365;SDS011;18837;46.832;16.838;2024-01-30T13:18:51;9.87;;;6.43;;
32365;SDS011;18837;46.832;16.838;2024-01-30T13:24:01;11.57;;;7.43;;
32365;SDS011;18837;46.832;16.838;2024-01-30T13:26:27;8.40;;;6.60;;
32365;SDS011;18837;46.832;16.838;2024-01-30T13:28:53;9.70;;;6.53;;
32365;SDS011;18837;46.832;16.838;2024-01-30T13:31:19;8.63;;;6.37;;
32365;SDS011;18837;46.832;16.838;2024-01-30T13:33:45;9.37;;;6.83;;
32365;SDS011;18837;46.832;16.838;2024-01-30T13:36:11;9.83;;;6.70;;
32365;SDS011;18837;46.832;16.838;2024-01-30T13:44:14;9.63;;;6.50;;
32365;SDS011;18837;46.832;16.838;2024-01-30T13:46:41;9.07;;;6.17;;
32365;SDS011;18837;46.832;16.838;2024-01-30T13:49:08;11.00;;;7.40;;
32365;SDS011;18837;46.832;16.838;2024-01-30T13:51:34;9.70;;;6.53;;
32365;SDS011;18837;46.832;16.838;2024-01-30T13:54:00;10.00;;;6.17;;
32365;SDS011;18837;46.832;16.838;2024-01-30T13:56:31;9.73;;;6.63;;
32365;SDS011;18837;46.832;16.838;2024-01-30T13:58:57;10.23;;;6.63;;
32365;SDS011;18837;46.832;16.838;2024-01-30T14:01:25;10.40;;;6.67;;
32365;SDS011;18837;46.832;16.838;2024-01-30T14:03:50;9.50;;;6.53;;
32365;SDS011;18837;46.832;16.838;2024-01-30T14:06:16;10.60;;;7.13;;
32365;SDS011;18837;46.832;16.838;2024-01-30T14:08:42;10.83;;;6.70;;
32365;SDS011;18837;46.832;16.838;2024-01-30T14:17:32;11.57;;;6.77;;
32365;SDS011;18837;46.832;16.838;2024-01-30T14:19:58;9.47;;;6.70;;
32365;SDS011;18837;46.832;16.838;2024-01-30T14:22:24;9.77;;;6.63;;
32365;SDS011;18837;46.832;16.838;2024-01-30T14:24:50;8.53;;;6.60;;
32365;SDS011;18837;46.832;16.838;2024-01-30T14:27:15;8.43;;;6.77;;
32365;SDS011;18837;46.832;16.838;2024-01-30T14:29:41;9.80;;;7.03;;
32365;SDS011;18837;46.832;16.838;2024-01-30T14:34:43;10.03;;;7.00;;
32365;SDS011;18837;46.832;16.838;2024-01-30T14:37:09;10.13;;;7.53;;
32365;SDS011;18837;46.832;16.838;2024-01-30T14:39:35;10.83;;;7.10;;
32365;SDS011;18837;46.832;16.838;2024-01-30T14:42:02;9.60;;;6.90;;
32365;SDS011;18837;46.832;16.838;2024-01-30T14:44:29;11.00;;;7.17;;
32365;SDS011;18837;46.832;16.838;2024-01-30T14:52:06;8.40;;;6.90;;
32365;SDS011;18837;46.832;16.838;2024-01-30T14:54:33;11.00;;;7.23;;
32365;SDS011;18837;46.832;16.838;2024-01-30T14:57:02;11.03;;;7.13;;
32365;SDS011;18837;46.832;16.838;2024-01-30T14:59:28;8.70;;;6.60;;
32365;SDS011;18837;46.832;16.838;2024-01-30T15:01:54;9.47;;;6.63;;
32365;SDS011;18837;46.832;16.838;2024-01-30T15:04:21;9.90;;;7.57;;
32365;SDS011;18837;46.832;16.838;2024-01-30T15:06:53;9.07;;;6.40;;
32365;SDS011;18837;46.832;16.838;2024-01-30T15:09:19;9.37;;;6.97;;
32365;SDS011;18837;46.832;16.838;2024-01-30T15:11:47;9.93;;;6.70;;
32365;SDS011;18837;46.832;16.838;2024-01-30T15:14:14;9.23;;;6.50;;
32365;SDS011;18837;46.832;16.838;2024-01-30T15:16:40;9.00;;;6.60;;
32365;SDS011;18837;46.832;16.838;2024-01-30T15:19:06;14.10;;;7.10;;
32365;SDS011;18837;46.832;16.838;2024-01-30T15:21:32;14.23;;;6.87;;
32365;SDS011;18837;46.832;16.838;2024-01-30T15:24:14;13.63;;;7.30;;
32365;SDS011;18837;46.832;16.838;2024-01-30T15:26:43;10.67;;;6.90;;
32365;SDS011;18837;46.832;16.838;2024-01-30T15:29:08;8.83;;;6.20;;
32365;SDS011;18837;46.832;16.838;2024-01-30T15:31:34;11.97;;;6.70;;
32365;SDS011;18837;46.832;16.838;2024-01-30T15:34:00;10.77;;;6.67;;
32365;SDS011;18837;46.832;16.838;2024-01-30T15:36:26;11.80;;;6.23;;
32365;SDS011;18837;46.832;16.838;2024-01-30T15:38:52;9.40;;;5.87;;
32365;SDS011;18837;46.832;16.838;2024-01-30T15:41:17;10.10;;;5.80;;
32365;SDS011;18837;46.832;16.838;2024-01-30T15:43:43;11.97;;;6.20;;
32365;SDS011;18837;46.832;16.838;2024-01-30T15:46:11;8.20;;;6.37;;
32365;SDS011;18837;46.832;16.838;2024-01-30T15:48:36;8.73;;;5.70;;
32365;SDS011;18837;46.832;16.838;2024-01-30T15:51:02;10.10;;;6.17;;
32365;SDS011;18837;46.832;16.838;2024-01-30T15:53:28;9.90;;;6.60;;
32365;SDS011;18837;46.832;16.838;2024-01-30T16:01:34;10.77;;;6.63;;
32365;SDS011;18837;46.832;16.838;2024-01-30T16:04:00;10.80;;;6.47;;
32365;SDS011;18837;46.832;16.838;2024-01-30T16:06:25;9.67;;;5.90;;
32365;SDS011;18837;46.832;16.838;2024-01-30T16:08:55;8.37;;;6.23;;
32365;SDS011;18837;46.832;16.838;2024-01-30T16:11:23;9.00;;;5.93;;
32365;SDS011;18837;46.832;16.838;2024-01-30T16:16:40;10.17;;;6.33;;
32365;SDS011;18837;46.832;16.838;2024-01-30T16:19:11;11.70;;;6.43;;
32365;SDS011;18837;46.832;16.838;2024-01-30T16:21:38;10.17;;;6.33;;
32365;SDS011;18837;46.832;16.838;2024-01-30T16:24:04;8.17;;;6.30;;
32365;SDS011;18837;46.832;16.838;2024-01-30T16:26:30;10.83;;;6.33;;
32365;SDS011;18837;46.832;16.838;2024-01-30T16:28:57;10.87;;;6.33;;
32365;SDS011;18837;46.832;16.838;2024-01-30T16:34:26;9.00;;;6.87;;
32365;SDS011;18837;46.832;16.838;2024-01-30T16:36:52;9.93;;;7.03;;
32365;SDS011;18837;46.832;16.838;2024-01-30T16:39:18;9.83;;;6.93;;